createdAt,value
2019-01-09T00:01:40.927Z,11.00
2019-01-09T00:04:12.283Z,10.90
2019-01-09T00:06:52.894Z,11.00
2019-01-09T00:09:25.782Z,10.90
2019-01-09T00:12:09.438Z,10.80
2019-01-09T00:14:58.004Z,10.80
2019-01-09T00:17:50.912Z,10.80
2019-01-09T00:20:23.742Z,10.80
2019-01-09T00:22:54.940Z,10.90
2019-01-09T00:25:26.042Z,10.90
2019-01-09T00:27:58.085Z,10.80
2019-01-09T00:30:29.478Z,10.80
2019-01-09T00:33:09.024Z,10.80
2019-01-09T00:35:40.083Z,10.90
2019-01-09T00:38:20.444Z,10.80
2019-01-09T00:40:55.411Z,10.80
2019-01-09T00:43:26.698Z,10.80
2019-01-09T00:46:01.415Z,10.70
2019-01-09T00:48:33.605Z,10.80
2019-01-09T00:51:22.284Z,10.90
2019-01-09T00:53:53.281Z,10.90
2019-01-09T00:56:25.388Z,10.80
2019-01-09T00:58:56.586Z,10.70
2019-01-09T01:01:27.971Z,10.60
2019-01-09T01:04:33.443Z,10.60
2019-01-09T01:07:41.231Z,10.50
2019-01-09T01:11:07.440Z,10.50
2019-01-09T01:13:56.662Z,10.60
2019-01-09T01:17:04.486Z,10.60
2019-01-09T01:20:22.850Z,10.50
2019-01-09T01:23:30.755Z,10.60
2019-01-09T01:27:04.571Z,10.50
2019-01-09T01:30:22.112Z,10.50
2019-01-09T01:33:23.663Z,10.50
2019-01-09T01:36:44.946Z,10.40
2019-01-09T01:39:32.739Z,10.40
2019-01-09T01:42:46.432Z,10.30
2019-01-09T01:46:07.081Z,10.40
2019-01-09T01:49:18.089Z,10.40
2019-01-09T01:52:29.960Z,10.30
2019-01-09T01:59:01.654Z,10.20
2019-01-09T02:02:19.129Z,10.20
2019-01-09T02:05:13.716Z,10.30
2019-01-09T02:08:22.689Z,10.10
2019-01-09T02:11:42.372Z,10.00
2019-01-09T02:14:52.400Z,9.90
2019-01-09T02:17:52.264Z,9.90
2019-01-09T02:21:13.924Z,10.00
2019-01-09T02:24:37.157Z,9.90
2019-01-09T02:27:57.894Z,9.90
2019-01-09T02:31:15.972Z,9.90
2019-01-09T02:33:47.056Z,9.80
2019-01-09T02:36:17.769Z,9.90
2019-01-09T02:38:48.834Z,9.90
2019-01-09T02:41:19.476Z,9.80
2019-01-09T02:43:50.782Z,9.70
2019-01-09T02:46:21.500Z,9.70
2019-01-09T02:49:08.799Z,9.70
2019-01-09T02:51:39.778Z,9.70
2019-01-09T02:54:11.222Z,9.70
2019-01-09T02:56:42.309Z,9.70
2019-01-09T02:59:19.004Z,9.70
2019-01-09T03:01:49.944Z,9.70
2019-01-09T03:04:20.771Z,9.70
2019-01-09T03:06:55.968Z,9.60
2019-01-09T03:09:27.149Z,9.50
2019-01-09T03:11:58.208Z,9.50
2019-01-09T03:14:29.633Z,9.50
2019-01-09T03:17:00.773Z,9.40
2019-01-09T03:19:31.919Z,9.40
2019-01-09T03:22:03.168Z,9.40
2019-01-09T03:24:34.373Z,9.30
2019-01-09T03:27:05.545Z,9.20
2019-01-09T03:29:38.048Z,9.20
2019-01-09T03:32:09.422Z,9.30
2019-01-09T03:34:40.654Z,9.40
2019-01-09T03:37:12.259Z,9.40
2019-01-09T03:39:43.311Z,9.40
2019-01-09T03:42:14.421Z,9.50
2019-01-09T03:44:49.044Z,9.50
2019-01-09T03:47:19.804Z,9.40
2019-01-09T03:49:51.263Z,9.30
2019-01-09T03:52:22.426Z,9.40
2019-01-09T03:55:06.649Z,9.40
2019-01-09T03:57:37.660Z,9.40
2019-01-09T04:00:11.939Z,9.40
2019-01-09T04:02:43.158Z,9.50
2019-01-09T04:05:26.966Z,9.50
2019-01-09T04:07:58.388Z,9.40
2019-01-09T04:10:29.515Z,9.30
2019-01-09T04:13:00.574Z,9.40
2019-01-09T04:15:32.192Z,9.40
2019-01-09T04:18:03.730Z,9.30
2019-01-09T04:20:34.878Z,9.30
2019-01-09T04:23:06.105Z,9.30
2019-01-09T04:25:37.541Z,9.40
2019-01-09T04:28:08.607Z,9.30
2019-01-09T04:30:42.554Z,9.40
2019-01-09T04:33:25.515Z,9.30
2019-01-09T04:36:01.405Z,9.30
2019-01-09T04:38:32.598Z,9.30
2019-01-09T04:41:03.861Z,9.30
2019-01-09T04:43:35.290Z,9.20
2019-01-09T04:46:06.454Z,9.30
2019-01-09T04:48:37.577Z,9.40
2019-01-09T04:51:09.200Z,9.30
2019-01-09T04:53:47.285Z,9.20
2019-01-09T04:56:18.197Z,9.30
2019-01-09T04:58:50.627Z,9.20
2019-01-09T05:01:21.559Z,9.30
2019-01-09T05:03:52.445Z,9.30
2019-01-09T05:06:24.669Z,9.20
2019-01-09T05:08:57.546Z,9.10
2019-01-09T05:11:31.599Z,9.00
2019-01-09T05:14:07.967Z,9.00
2019-01-09T05:16:50.721Z,9.10
2019-01-09T05:19:21.955Z,9.10
2019-01-09T05:21:53.285Z,9.10
2019-01-09T05:24:24.593Z,9.00
2019-01-09T05:26:55.993Z,9.00
2019-01-09T05:29:27.101Z,9.00
2019-01-09T05:31:58.428Z,9.00
2019-01-09T05:34:30.218Z,9.10
2019-01-09T05:37:09.198Z,9.00
2019-01-09T05:39:39.606Z,8.90
2019-01-09T05:42:07.588Z,8.90
2019-01-09T05:44:38.829Z,8.70
2019-01-09T05:47:10.204Z,8.90
2019-01-09T05:49:42.549Z,9.00
2019-01-09T05:52:13.999Z,9.00
2019-01-09T05:54:50.627Z,9.00
2019-01-09T05:57:21.322Z,9.00
2019-01-09T05:59:52.616Z,9.20
2019-01-09T06:02:24.225Z,9.10
2019-01-09T06:04:56.235Z,9.20
2019-01-09T06:07:28.207Z,9.30
2019-01-09T06:10:00.099Z,9.20
2019-01-09T06:12:34.051Z,9.20
2019-01-09T06:15:05.807Z,9.20
2019-01-09T06:17:36.930Z,9.40
2019-01-09T06:20:11.361Z,9.30
2019-01-09T06:22:42.554Z,9.20
2019-01-09T06:25:13.704Z,9.20
2019-01-09T06:27:44.900Z,9.30
2019-01-09T06:30:16.292Z,9.20
2019-01-09T06:32:47.581Z,9.30
2019-01-09T06:35:18.292Z,9.30
2019-01-09T06:37:50.206Z,9.40
2019-01-09T06:40:21.326Z,9.40
2019-01-09T06:42:52.826Z,9.40
2019-01-09T06:45:23.825Z,9.40
2019-01-09T06:47:58.893Z,9.40
2019-01-09T06:50:32.466Z,9.50
2019-01-09T06:53:04.014Z,9.60
2019-01-09T06:55:36.221Z,9.70
2019-01-09T06:58:07.364Z,9.70
2019-01-09T07:00:43.226Z,9.80
2019-01-09T07:03:14.593Z,9.70
2019-01-09T07:05:47.833Z,9.70
2019-01-09T07:08:19.438Z,9.70
2019-01-09T07:10:50.425Z,9.70
2019-01-09T07:13:21.246Z,9.80
2019-01-09T07:15:52.304Z,9.70
2019-01-09T07:18:24.474Z,9.50
2019-01-09T07:20:56.047Z,9.50
2019-01-09T07:23:37.744Z,9.40
2019-01-09T07:26:09.425Z,9.40
2019-01-09T07:28:41.847Z,9.50
2019-01-09T07:31:13.202Z,9.60
2019-01-09T07:33:44.480Z,9.60
2019-01-09T07:36:15.353Z,9.60
2019-01-09T07:38:46.585Z,9.80
2019-01-09T07:41:17.409Z,9.80
2019-01-09T07:43:54.804Z,9.90
2019-01-09T07:46:25.944Z,9.80
2019-01-09T07:48:57.399Z,9.80
2019-01-09T07:51:28.518Z,9.90
2019-01-09T07:53:59.809Z,9.90
2019-01-09T07:56:31.854Z,9.80
2019-01-09T07:59:03.678Z,9.80
2019-01-09T08:01:34.789Z,9.80
2019-01-09T08:04:06.199Z,9.90
2019-01-09T08:06:37.448Z,9.90
2019-01-09T08:09:08.971Z,10.00
2019-01-09T08:11:40.072Z,10.20
2019-01-09T08:14:11.528Z,10.20
2019-01-09T08:16:59.763Z,10.30
2019-01-09T08:19:30.904Z,10.30
2019-01-09T08:22:04.115Z,10.40
2019-01-09T08:24:37.638Z,10.40
2019-01-09T08:27:08.737Z,10.50
2019-01-09T08:29:40.116Z,10.50
2019-01-09T08:32:13.899Z,10.60
2019-01-09T08:34:45.061Z,10.60
2019-01-09T08:37:15.866Z,10.70
2019-01-09T08:39:47.134Z,10.70
2019-01-09T08:42:18.051Z,10.70
2019-01-09T08:44:49.371Z,10.60
2019-01-09T08:47:33.243Z,10.70
2019-01-09T08:50:04.789Z,10.60
2019-01-09T08:52:36.084Z,10.60
2019-01-09T08:55:08.611Z,10.80
2019-01-09T08:57:39.746Z,10.80
2019-01-09T09:00:12.613Z,10.90
2019-01-09T09:02:43.696Z,11.10
2019-01-09T09:05:15.542Z,11.30
2019-01-09T09:07:48.767Z,11.20
2019-01-09T09:10:19.876Z,11.10
2019-01-09T09:12:51.023Z,11.10
2019-01-09T09:15:31.679Z,11.10
2019-01-09T09:18:02.860Z,11.30
2019-01-09T09:20:35.027Z,11.30
2019-01-09T09:23:07.935Z,11.40
2019-01-09T09:25:39.435Z,11.50
2019-01-09T09:28:10.798Z,11.50
2019-01-09T09:31:00.867Z,11.50
2019-01-09T09:33:28.947Z,11.60
2019-01-09T09:36:17.166Z,11.60
2019-01-09T09:38:48.751Z,11.70
2019-01-09T09:41:20.497Z,11.70
2019-01-09T09:43:52.063Z,11.70
2019-01-09T09:46:24.464Z,11.70
2019-01-09T09:48:56.318Z,11.80
2019-01-09T09:51:34.415Z,12.00
2019-01-09T09:54:06.087Z,11.90
2019-01-09T09:56:37.646Z,12.00
2019-01-09T09:59:09.277Z,12.10
2019-01-09T10:01:41.076Z,12.20
2019-01-09T10:04:12.448Z,12.10
2019-01-09T10:06:45.250Z,12.10
2019-01-09T10:09:16.223Z,12.10
2019-01-09T10:11:47.540Z,12.90
2019-01-09T10:14:20.019Z,12.10
2019-01-09T10:16:51.532Z,12.20
2019-01-09T10:19:22.619Z,12.50
2019-01-09T10:21:54.239Z,12.50
2019-01-09T10:24:25.382Z,12.40
2019-01-09T10:26:56.608Z,12.20
2019-01-09T10:29:29.557Z,12.30
2019-01-09T10:32:02.149Z,12.30
2019-01-09T10:34:36.199Z,12.40
2019-01-09T10:37:07.713Z,12.60
2019-01-09T10:39:39.775Z,12.70
2019-01-09T10:42:11.100Z,13.40
2019-01-09T10:44:50.302Z,12.80
2019-01-09T10:47:21.444Z,12.90
2019-01-09T10:49:53.054Z,12.90
2019-01-09T10:52:23.920Z,12.90
2019-01-09T10:54:55.336Z,12.90
2019-01-09T10:57:26.836Z,12.80
2019-01-09T10:59:58.129Z,12.80
2019-01-09T11:02:29.655Z,13.00
2019-01-09T11:05:00.937Z,13.10
2019-01-09T11:07:32.420Z,13.00
2019-01-09T11:10:04.137Z,13.00
2019-01-09T11:12:35.559Z,11.90
2019-01-09T11:15:07.689Z,13.10
2019-01-09T11:17:39.055Z,13.10
2019-01-09T11:20:20.926Z,13.30
2019-01-09T11:22:52.362Z,13.30
2019-01-09T11:25:30.011Z,13.40
2019-01-09T11:28:01.377Z,13.50
2019-01-09T11:30:32.510Z,13.50
2019-01-09T11:33:04.414Z,13.50
2019-01-09T11:35:37.028Z,13.60
2019-01-09T11:38:07.994Z,13.70
2019-01-09T11:40:42.267Z,13.60
2019-01-09T11:43:14.779Z,13.70
2019-01-09T11:45:46.127Z,13.70
2019-01-09T11:48:17.137Z,13.70
2019-01-09T11:50:48.443Z,13.60
2019-01-09T11:53:19.498Z,13.50
2019-01-09T11:55:50.802Z,13.50
2019-01-09T11:58:21.994Z,13.60
2019-01-09T12:00:53.455Z,13.80
2019-01-09T12:03:25.061Z,13.70
2019-01-09T12:05:58.036Z,13.90
2019-01-09T12:08:29.208Z,13.80
2019-01-09T12:11:00.746Z,13.80
2019-01-09T12:13:32.066Z,13.70
2019-01-09T12:16:11.941Z,13.90
2019-01-09T12:18:43.375Z,13.90
2019-01-09T12:21:16.761Z,14.00
2019-01-09T12:23:56.002Z,14.10
2019-01-09T12:26:26.743Z,14.10
2019-01-09T12:28:58.074Z,14.10
2019-01-09T12:31:29.141Z,14.10
2019-01-09T12:34:00.558Z,14.20
2019-01-09T12:36:33.911Z,14.20
2019-01-09T12:39:15.444Z,14.30
2019-01-09T12:41:58.353Z,14.30
2019-01-09T12:44:35.595Z,14.40
2019-01-09T12:47:15.595Z,14.30
2019-01-09T12:49:47.011Z,14.40
2019-01-09T12:52:18.289Z,14.50
2019-01-09T12:54:52.845Z,14.50
2019-01-09T12:57:26.911Z,14.50
2019-01-09T12:59:59.980Z,14.50
2019-01-09T13:02:31.475Z,14.50
2019-01-09T13:05:02.837Z,14.60
2019-01-09T13:07:34.325Z,14.60
2019-01-09T13:10:06.901Z,14.60
2019-01-09T13:12:38.329Z,14.60
2019-01-09T13:15:09.830Z,14.70
2019-01-09T13:17:53.358Z,15.40
2019-01-09T13:20:25.860Z,14.70
2019-01-09T13:22:56.974Z,14.70
2019-01-09T13:25:28.353Z,14.70
2019-01-09T13:27:59.566Z,14.70
2019-01-09T13:30:30.855Z,14.80
2019-01-09T13:33:01.915Z,14.70
2019-01-09T13:35:39.211Z,14.70
2019-01-09T13:38:10.804Z,14.70
2019-01-09T13:40:42.310Z,14.70
2019-01-09T13:43:14.151Z,14.70
2019-01-09T13:45:45.545Z,14.80
2019-01-09T13:48:16.521Z,14.90
2019-01-09T13:50:49.325Z,14.90
2019-01-09T13:53:21.268Z,14.90
2019-01-09T13:55:53.026Z,15.00
2019-01-09T13:58:25.053Z,14.80
2019-01-09T14:00:56.539Z,14.80
2019-01-09T14:03:27.713Z,14.90
2019-01-09T14:05:59.517Z,14.90
2019-01-09T14:08:31.991Z,15.00
2019-01-09T14:11:04.463Z,14.90
2019-01-09T14:13:35.608Z,14.90
2019-01-09T14:16:07.225Z,14.90
2019-01-09T14:18:38.527Z,15.00
2019-01-09T14:21:09.787Z,15.00
2019-01-09T14:23:59.908Z,15.00
2019-01-09T14:26:31.387Z,15.00
2019-01-09T14:29:02.882Z,15.00
2019-01-09T14:31:42.008Z,15.10
2019-01-09T14:34:10.353Z,15.10
2019-01-09T14:36:41.539Z,15.20
2019-01-09T14:39:13.028Z,15.10
2019-01-09T14:41:44.702Z,15.10
2019-01-09T14:44:20.845Z,15.10
2019-01-09T14:46:52.643Z,15.20
2019-01-09T14:49:23.475Z,15.20
2019-01-09T14:51:54.717Z,15.20
2019-01-09T14:54:25.720Z,15.30
2019-01-09T14:56:57.175Z,15.30
2019-01-09T14:59:28.053Z,15.40
2019-01-09T15:02:10.298Z,15.70
2019-01-09T15:04:41.728Z,15.90
2019-01-09T15:07:15.421Z,15.80
2019-01-09T15:09:47.165Z,15.50
2019-01-09T15:12:18.191Z,15.20
2019-01-09T15:14:54.511Z,14.90
2019-01-09T15:17:25.891Z,14.80
2019-01-09T15:19:57.345Z,14.50
2019-01-09T15:22:28.949Z,14.40
2019-01-09T15:25:00.481Z,14.40
2019-01-09T15:27:31.603Z,14.30
2019-01-09T15:30:03.160Z,14.30
2019-01-09T15:32:35.638Z,14.20
2019-01-09T15:35:14.445Z,14.20
2019-01-09T15:37:46.523Z,14.10
2019-01-09T15:40:22.809Z,14.00
2019-01-09T15:42:55.119Z,13.90
2019-01-09T15:45:26.293Z,13.00
2019-01-09T15:47:57.569Z,13.80
2019-01-09T15:50:29.112Z,13.70
2019-01-09T15:53:00.336Z,13.70
2019-01-09T15:55:31.768Z,13.60
2019-01-09T15:58:07.326Z,13.70
2019-01-09T16:00:41.619Z,14.20
2019-01-09T16:03:13.630Z,13.30
2019-01-09T16:05:45.828Z,13.20
2019-01-09T16:08:17.919Z,13.10
2019-01-09T16:10:48.893Z,13.10
2019-01-09T16:13:19.731Z,13.00
2019-01-09T16:16:07.421Z,13.10
2019-01-09T16:18:41.453Z,13.00
2019-01-09T16:21:17.682Z,12.90
2019-01-09T16:23:49.282Z,12.90
2019-01-09T16:26:20.038Z,12.90
2019-01-09T16:28:51.889Z,12.90
2019-01-09T16:31:29.122Z,12.90
2019-01-09T16:34:00.579Z,12.80
2019-01-09T16:36:32.609Z,12.80
2019-01-09T16:39:07.844Z,12.80
2019-01-09T16:41:39.173Z,12.70
2019-01-09T16:44:11.533Z,12.70
2019-01-09T16:46:42.728Z,12.70
2019-01-09T16:49:13.891Z,12.60
2019-01-09T16:51:45.794Z,12.60
2019-01-09T16:54:17.134Z,12.60
2019-01-09T16:56:48.390Z,12.60
2019-01-09T16:59:20.285Z,12.50
2019-01-09T17:01:51.508Z,12.60
2019-01-09T17:04:23.650Z,12.50
2019-01-09T17:06:56.274Z,11.50
2019-01-09T17:09:41.441Z,12.50
2019-01-09T17:12:12.950Z,12.60
2019-01-09T17:14:45.766Z,12.40
2019-01-09T17:17:16.834Z,12.40
2019-01-09T17:19:48.429Z,12.40
2019-01-09T17:22:19.753Z,12.40
2019-01-09T17:24:54.664Z,12.20
2019-01-09T17:27:25.477Z,12.20
2019-01-09T17:29:56.904Z,12.20
2019-01-09T17:32:28.033Z,12.20
2019-01-09T17:34:59.678Z,12.30
2019-01-09T17:37:31.031Z,12.30
2019-01-09T17:40:02.488Z,12.20
2019-01-09T17:42:36.900Z,12.20
2019-01-09T17:45:10.206Z,12.20
2019-01-09T17:47:41.576Z,12.20
2019-01-09T17:50:17.834Z,12.30
2019-01-09T17:52:48.944Z,12.20
2019-01-09T17:55:20.094Z,12.10
2019-01-09T17:57:52.098Z,12.20
2019-01-09T18:00:36.768Z,12.20
2019-01-09T18:03:08.184Z,12.20
2019-01-09T18:05:42.241Z,12.20
2019-01-09T18:08:14.028Z,12.20
2019-01-09T18:10:50.348Z,12.20
2019-01-09T18:13:20.150Z,12.20
2019-01-09T18:15:52.133Z,12.30
2019-01-09T18:18:28.047Z,12.20
2019-01-09T18:21:06.666Z,12.30
2019-01-09T18:23:38.031Z,12.30
2019-01-09T18:26:09.485Z,12.30
2019-01-09T18:28:40.882Z,12.40
2019-01-09T18:31:34.399Z,12.50
2019-01-09T18:34:43.787Z,12.50
2019-01-09T18:37:56.648Z,12.60
2019-01-09T18:40:40.449Z,12.60
2019-01-09T18:43:52.412Z,11.90
2019-01-09T18:46:53.114Z,12.70
2019-01-09T18:49:54.225Z,12.90
2019-01-09T18:52:54.080Z,12.90
2019-01-09T18:55:25.527Z,12.80
2019-01-09T18:57:57.087Z,12.70
2019-01-09T19:00:32.422Z,12.70
2019-01-09T19:03:03.936Z,12.70
2019-01-09T19:05:35.690Z,12.80
2019-01-09T19:08:08.667Z,12.80
2019-01-09T19:10:43.151Z,12.80
2019-01-09T19:13:14.480Z,12.70
2019-01-09T19:15:46.706Z,12.60
2019-01-09T19:18:17.645Z,12.50
2019-01-09T19:20:49.412Z,12.40
2019-01-09T19:23:20.718Z,12.40
2019-01-09T19:25:53.350Z,12.40
2019-01-09T19:28:24.458Z,12.20
2019-01-09T19:30:55.651Z,12.20
2019-01-09T19:33:27.043Z,12.30
2019-01-09T19:35:58.523Z,12.30
2019-01-09T19:38:34.508Z,12.30
2019-01-09T19:41:06.004Z,12.30
2019-01-09T19:43:37.287Z,12.40
2019-01-09T19:46:08.582Z,12.30
2019-01-09T19:48:48.637Z,12.40
2019-01-09T19:51:19.710Z,12.40
2019-01-09T19:54:04.156Z,12.30
2019-01-09T19:56:44.323Z,12.30
2019-01-09T19:59:16.081Z,12.40
2019-01-09T20:01:47.232Z,12.30
2019-01-09T20:04:18.072Z,12.30
2019-01-09T20:06:49.415Z,12.10
2019-01-09T20:09:20.529Z,12.10
2019-01-09T20:11:52.319Z,12.00
2019-01-09T20:14:23.260Z,11.90
2019-01-09T20:16:55.136Z,12.00
2019-01-09T20:19:26.202Z,12.10
2019-01-09T20:21:57.277Z,12.10
2019-01-09T20:24:28.573Z,12.20
2019-01-09T20:26:59.872Z,12.10
2019-01-09T20:29:31.045Z,12.10
2019-01-09T20:32:02.589Z,11.90
2019-01-09T20:34:33.745Z,11.80
2019-01-09T20:37:14.776Z,11.70
2019-01-09T20:39:45.951Z,11.90
2019-01-09T20:42:16.897Z,12.00
2019-01-09T20:44:52.870Z,11.80
2019-01-09T20:47:23.676Z,11.80
2019-01-09T20:49:55.151Z,11.70
2019-01-09T20:52:26.082Z,11.50
2019-01-09T20:54:57.287Z,11.50
2019-01-09T20:57:46.381Z,11.60
2019-01-09T21:00:22.939Z,12.40
2019-01-09T21:02:54.901Z,11.40
2019-01-09T21:05:29.100Z,11.30
2019-01-09T21:08:02.101Z,11.20
2019-01-09T21:10:34.619Z,11.20
2019-01-09T21:13:06.486Z,11.20
2019-01-09T21:15:38.185Z,11.00
2019-01-09T21:18:13.174Z,11.00
2019-01-09T21:20:44.090Z,10.90
2019-01-09T21:23:15.380Z,10.90
2019-01-09T21:25:46.665Z,10.80
2019-01-09T21:28:17.614Z,10.70
2019-01-09T21:30:48.875Z,9.90
2019-01-09T21:33:20.250Z,10.60
2019-01-09T21:35:52.340Z,10.70
2019-01-09T21:38:23.681Z,10.70
2019-01-09T21:41:01.871Z,10.60
2019-01-09T21:43:34.088Z,10.70
2019-01-09T21:46:08.539Z,10.60
2019-01-09T21:48:41.877Z,10.60
2019-01-09T21:51:14.869Z,10.60
2019-01-09T21:53:46.277Z,10.70
2019-01-09T21:56:17.608Z,10.60
2019-01-09T21:58:48.932Z,10.60
2019-01-09T22:01:21.651Z,10.50
2019-01-09T22:03:56.698Z,10.40
2019-01-09T22:06:27.840Z,10.40
2019-01-09T22:08:59.354Z,10.30
2019-01-09T22:11:31.326Z,10.20
2019-01-09T22:14:06.360Z,10.20
2019-01-09T22:16:37.463Z,10.10
2019-01-09T22:19:12.022Z,10.10
2019-01-09T22:21:41.745Z,10.10
2019-01-09T22:24:13.005Z,10.00
2019-01-09T22:26:47.414Z,9.90
2019-01-09T22:29:18.598Z,9.90
2019-01-09T22:31:50.080Z,9.90
2019-01-09T22:34:24.596Z,9.90
2019-01-09T22:37:06.478Z,9.80
2019-01-09T22:39:37.785Z,9.70
2019-01-09T22:42:12.003Z,9.70
2019-01-09T22:44:55.160Z,9.70
2019-01-09T22:47:48.426Z,9.60
2019-01-09T22:50:21.599Z,9.60
2019-01-09T22:52:52.984Z,9.60
2019-01-09T22:55:24.066Z,9.50
2019-01-09T22:57:55.280Z,9.60
2019-01-09T23:00:50.953Z,9.60
2019-01-09T23:03:22.020Z,9.60
2019-01-09T23:05:53.445Z,9.50
2019-01-09T23:08:27.478Z,9.60
2019-01-09T23:10:58.597Z,9.60
2019-01-09T23:13:29.858Z,9.60
2019-01-09T23:16:01.048Z,9.60
2019-01-09T23:18:32.382Z,9.60
2019-01-09T23:21:04.015Z,9.70
2019-01-09T23:23:35.084Z,9.80
2019-01-09T23:26:21.373Z,9.90
2019-01-09T23:28:46.887Z,9.90
2019-01-09T23:31:18.659Z,10.10
2019-01-09T23:33:51.279Z,10.10
2019-01-09T23:36:22.656Z,10.10
2019-01-09T23:38:54.068Z,10.10
2019-01-09T23:41:24.961Z,10.20
2019-01-09T23:43:56.457Z,10.30
2019-01-09T23:46:27.277Z,10.40
2019-01-09T23:48:58.256Z,10.40
2019-01-09T23:51:29.374Z,10.30
2019-01-09T23:54:01.680Z,10.10
2019-01-09T23:56:33.151Z,10.00
2019-01-09T23:59:04.307Z,9.90
